Terminal Aerodrome Forecast
Issued by NWS Wilmington, OH

Home | Current Version | Previous Version | Text Only | Print | Product List | Glossary On
Versions: 1 2 3 4 5 6 7 8 9 10 11 12 13 14 15 16
000
FTUS41 KILN 301300 AAA
TAFDAY
TAF AMD
KDAY 301321Z 3013/0112 33007KT 5SM BR OVC007
     FM301400 31010KT P6SM VCSH OVC007
     FM302000 35010KT P6SM SCT025
     FM010300 03005KT P6SM SCT250=

USA.gov is the U.S. government's official web portal to all federal, state and local government web resources and services.